Terminal Aerodrome Forecast
Issued by NWS Lake Charles, LA

Home | Current Version | Previous Version | Text Only | Print | Product List | Glossary On
Versions: 1 2 3 4 5 6 7 8 9 10 11 12 13 14 15
000
FTUS44 KLCH 041136
TAFBPT
TAF
KBPT 041136Z 0412/0512 VRB03KT P6SM VCSH SCT025 OVC250
     FM041500 21008KT P6SM VCTS SCT035CB OVC250
     FM050200 VRB03KT P6SM OVC250=

USA.gov is the U.S. government's official web portal to all federal, state and local government web resources and services.